Allens Point, New York
Current Conditions -  °F | °C
As of 12:53 AM on Thursday 23 Oct 2014 (Local Time) from KPEO Reporting Station
Clear Clear  
Wind Chill: 45°   Ceiling: Unl
Heat Index: 48°   Visibility: 10mi
Dew Point: 41°   Wind: 7mph
Humidity: 77%   Direction: NA
Pressure: 30.07"   Gusts: NA
Location:  42.8228°N, 76.6558°W
Report Text: KPEO 230453Z AUTO VRB06KT 10SM CLR 09/05 A3007 RMK AO2 SLP185 T00890050 400890078
Loading
Personal Weather Stations






























Interactive Weather Map
Tropical Storm Tracking
New forecast layout! Learn more

10-Day Weather Forecast

Advertisements
Track Severe Weather on mobile